createdAt,value
2023-06-30T00:00:19.799Z,0.00
2023-06-30T00:01:20.139Z,0.00
2023-06-30T00:02:20.574Z,0.00
2023-06-30T00:03:20.991Z,0.00
2023-06-30T00:04:21.233Z,0.00
2023-06-30T00:05:21.637Z,0.00
2023-06-30T00:06:21.969Z,0.00
2023-06-30T00:07:22.363Z,0.00
2023-06-30T00:08:22.677Z,0.00
2023-06-30T00:09:23.030Z,0.00
2023-06-30T00:10:23.464Z,0.00
2023-06-30T00:11:23.793Z,0.00
2023-06-30T00:12:24.136Z,0.00
2023-06-30T00:13:24.475Z,0.00
2023-06-30T00:14:24.855Z,0.00
2023-06-30T00:15:25.262Z,0.00
2023-06-30T00:16:25.650Z,0.00
2023-06-30T00:17:25.950Z,0.00
2023-06-30T00:18:26.406Z,0.00
2023-06-30T00:19:26.679Z,0.00
2023-06-30T00:20:27.040Z,0.00
2023-06-30T00:21:27.369Z,0.00
2023-06-30T00:22:27.731Z,0.00
2023-06-30T00:23:28.091Z,0.00
2023-06-30T00:24:28.464Z,0.00
2023-06-30T00:25:28.836Z,0.00
2023-06-30T00:26:29.193Z,0.00
2023-06-30T00:27:29.512Z,0.00
2023-06-30T00:28:29.890Z,0.00
2023-06-30T00:29:30.209Z,0.00
2023-06-30T00:30:30.605Z,0.00
2023-06-30T00:31:30.948Z,0.00
2023-06-30T00:32:31.312Z,0.00
2023-06-30T00:33:31.674Z,0.00
2023-06-30T00:34:32.002Z,0.00
2023-06-30T00:35:32.364Z,0.00
2023-06-30T00:36:32.729Z,0.00
2023-06-30T00:37:33.046Z,0.00
2023-06-30T00:38:33.419Z,0.00
2023-06-30T00:39:33.766Z,0.00
2023-06-30T00:40:34.090Z,0.00
2023-06-30T00:41:34.431Z,0.00
2023-06-30T00:42:34.786Z,0.00
2023-06-30T00:43:35.157Z,0.00
2023-06-30T00:44:35.521Z,0.00
2023-06-30T00:45:35.908Z,0.00
2023-06-30T00:46:36.248Z,0.00
2023-06-30T00:47:36.618Z,0.00
2023-06-30T00:48:36.963Z,0.00
2023-06-30T00:49:37.356Z,0.00
2023-06-30T00:50:37.728Z,0.00
2023-06-30T00:51:38.025Z,0.00
2023-06-30T00:52:38.419Z,0.00
2023-06-30T00:53:38.737Z,0.00
2023-06-30T00:54:39.097Z,0.00
2023-06-30T00:55:39.503Z,0.00
2023-06-30T00:56:39.826Z,0.00
2023-06-30T00:57:40.175Z,0.00
2023-06-30T00:58:40.563Z,0.00
2023-06-30T00:59:40.905Z,0.00
2023-06-30T01:00:41.291Z,0.00
2023-06-30T01:01:41.719Z,0.00
2023-06-30T01:02:42.100Z,0.00
2023-06-30T01:03:42.478Z,0.00
2023-06-30T01:04:42.782Z,0.00
2023-06-30T01:05:43.226Z,0.00
2023-06-30T01:06:43.487Z,0.00
2023-06-30T01:07:43.886Z,0.00
2023-06-30T01:08:44.187Z,0.00
2023-06-30T01:09:44.519Z,0.00
2023-06-30T01:10:44.922Z,0.00
2023-06-30T01:11:45.247Z,0.00
2023-06-30T01:12:45.627Z,0.00
2023-06-30T01:13:45.951Z,0.00
2023-06-30T01:14:46.317Z,0.00
2023-06-30T01:15:46.964Z,0.00
2023-06-30T01:16:47.105Z,0.00
2023-06-30T01:17:47.531Z,0.00
2023-06-30T01:18:47.810Z,0.00
2023-06-30T01:19:48.095Z,0.00
2023-06-30T01:20:48.508Z,0.00
2023-06-30T01:21:48.827Z,0.00
2023-06-30T01:22:49.191Z,0.00
2023-06-30T01:23:49.561Z,0.00
2023-06-30T01:24:49.883Z,0.00
2023-06-30T01:25:50.701Z,0.00
2023-06-30T01:26:50.624Z,0.00
2023-06-30T01:27:51.041Z,0.00
2023-06-30T01:28:51.340Z,0.00
2023-06-30T01:29:51.786Z,0.00
2023-06-30T01:30:52.106Z,0.00
2023-06-30T01:31:52.426Z,0.00
2023-06-30T01:32:52.834Z,0.00
2023-06-30T01:33:53.156Z,0.00
2023-06-30T01:34:53.528Z,0.00
2023-06-30T01:35:53.891Z,0.00
2023-06-30T01:36:54.219Z,0.00
2023-06-30T01:37:54.575Z,0.00
2023-06-30T01:38:54.947Z,0.00
2023-06-30T01:39:55.303Z,0.00
2023-06-30T01:40:55.700Z,0.00
2023-06-30T01:41:56.032Z,0.00
2023-06-30T01:42:56.434Z,0.00
2023-06-30T01:43:56.730Z,0.00
2023-06-30T01:44:57.086Z,0.00
2023-06-30T01:45:57.514Z,0.00
2023-06-30T01:46:57.816Z,0.00
2023-06-30T01:47:58.260Z,0.00
2023-06-30T01:48:58.523Z,0.00
2023-06-30T01:49:58.919Z,0.00
2023-06-30T01:50:59.289Z,0.00
2023-06-30T01:51:59.614Z,0.00
2023-06-30T01:53:00.006Z,0.00
2023-06-30T01:54:00.319Z,0.00
2023-06-30T01:55:00.695Z,0.00
2023-06-30T01:56:01.086Z,0.00
2023-06-30T01:57:01.412Z,0.00
2023-06-30T01:58:01.823Z,0.00
2023-06-30T01:59:02.148Z,0.00
2023-06-30T02:00:02.510Z,0.00
2023-06-30T02:01:02.910Z,0.00
2023-06-30T02:02:03.459Z,0.00
2023-06-30T02:03:03.646Z,0.00
2023-06-30T02:04:04.017Z,0.00
2023-06-30T02:05:04.342Z,0.00
2023-06-30T02:06:04.730Z,0.00
2023-06-30T02:07:05.108Z,0.00
2023-06-30T02:08:05.443Z,0.00
2023-06-30T02:09:05.849Z,0.00
2023-06-30T02:10:06.138Z,0.00
2023-06-30T02:11:06.506Z,0.00
2023-06-30T02:12:06.912Z,0.00
2023-06-30T02:13:07.239Z,0.00
2023-06-30T02:14:07.604Z,0.00
2023-06-30T02:15:07.834Z,0.00
2023-06-30T02:16:08.174Z,0.00
2023-06-30T02:17:08.292Z,0.00
2023-06-30T02:18:08.592Z,0.00
2023-06-30T02:19:08.870Z,0.00
2023-06-30T02:20:09.151Z,0.00
2023-06-30T02:21:09.431Z,0.00
2023-06-30T02:22:09.725Z,0.00
2023-06-30T02:23:10.013Z,0.00
2023-06-30T02:24:10.285Z,0.00
2023-06-30T02:25:10.568Z,0.00
2023-06-30T02:26:10.854Z,0.00
2023-06-30T02:27:11.135Z,0.00
2023-06-30T02:28:11.427Z,0.00
2023-06-30T02:29:11.753Z,0.00
2023-06-30T02:30:12.015Z,0.00
2023-06-30T02:31:12.357Z,0.00
2023-06-30T02:32:12.597Z,0.00
2023-06-30T02:33:12.888Z,0.00
2023-06-30T02:34:13.168Z,0.00
2023-06-30T02:35:13.501Z,0.00
2023-06-30T02:36:13.668Z,0.00
2023-06-30T02:37:13.821Z,0.00
2023-06-30T02:38:13.988Z,0.00
2023-06-30T02:39:14.171Z,0.00
2023-06-30T02:40:14.301Z,0.00
2023-06-30T02:41:14.524Z,0.00
2023-06-30T02:42:14.634Z,0.00
2023-06-30T02:43:14.940Z,0.00
2023-06-30T02:44:15.238Z,0.00
2023-06-30T02:45:15.561Z,0.00
2023-06-30T02:46:15.925Z,0.00
2023-06-30T02:47:16.004Z,0.00
2023-06-30T02:48:16.178Z,0.00
2023-06-30T02:49:16.339Z,0.00
2023-06-30T02:50:16.630Z,0.00
2023-06-30T02:51:16.942Z,0.00
2023-06-30T02:52:17.104Z,0.00
2023-06-30T02:53:17.253Z,0.00
2023-06-30T02:54:17.426Z,0.00
2023-06-30T02:55:17.585Z,0.00
2023-06-30T02:56:17.784Z,0.00
2023-06-30T02:57:17.918Z,0.00
2023-06-30T02:58:18.261Z,0.00
2023-06-30T02:59:18.374Z,5.62
2023-06-30T03:00:18.555Z,5.62
2023-06-30T03:01:18.804Z,5.62
2023-06-30T03:02:19.285Z,5.62
2023-06-30T03:03:19.309Z,5.62
2023-06-30T03:04:19.503Z,5.62
2023-06-30T03:05:19.650Z,5.62
2023-06-30T03:06:19.981Z,5.62
2023-06-30T03:07:20.156Z,5.62
2023-06-30T03:08:20.279Z,5.62
2023-06-30T03:09:20.456Z,5.62
2023-06-30T03:10:20.752Z,5.62
2023-06-30T03:11:20.923Z,5.62
2023-06-30T03:12:21.213Z,5.62
2023-06-30T03:13:21.389Z,11.25
2023-06-30T03:14:21.697Z,11.25
2023-06-30T03:15:21.869Z,11.25
2023-06-30T03:16:22.249Z,11.25
2023-06-30T03:17:29.530Z,11.25
2023-06-30T03:18:22.627Z,11.25
2023-06-30T03:19:22.829Z,11.25
2023-06-30T03:20:23.005Z,11.25
2023-06-30T03:21:23.302Z,16.88
2023-06-30T03:22:23.347Z,16.88
2023-06-30T03:23:23.591Z,16.88
2023-06-30T03:24:23.770Z,16.88
2023-06-30T03:25:23.911Z,16.88
2023-06-30T03:26:24.219Z,22.50
2023-06-30T03:27:24.431Z,22.50
2023-06-30T03:28:24.587Z,22.50
2023-06-30T03:29:24.776Z,28.12
2023-06-30T03:30:24.960Z,28.12
2023-06-30T03:31:25.264Z,28.12
2023-06-30T03:32:25.445Z,28.12
2023-06-30T03:33:25.751Z,33.75
2023-06-30T03:34:25.904Z,28.12
2023-06-30T03:35:26.219Z,28.12
2023-06-30T03:36:26.359Z,28.12
2023-06-30T03:37:26.452Z,28.12
2023-06-30T03:38:26.751Z,28.12
2023-06-30T03:39:27.103Z,33.75
2023-06-30T03:40:27.358Z,33.75
2023-06-30T03:41:27.460Z,33.75
2023-06-30T03:42:27.634Z,33.75
2023-06-30T03:43:27.796Z,33.75
2023-06-30T03:44:27.961Z,39.38
2023-06-30T03:45:28.180Z,39.38
2023-06-30T03:46:28.395Z,39.38
2023-06-30T03:47:28.655Z,45.00
2023-06-30T03:48:28.834Z,45.00
2023-06-30T03:49:29.068Z,39.38
2023-06-30T03:50:29.284Z,39.38
2023-06-30T03:51:29.593Z,45.00
2023-06-30T03:52:29.748Z,45.00
2023-06-30T03:53:29.916Z,50.62
2023-06-30T03:54:30.112Z,50.62
2023-06-30T03:55:30.431Z,56.25
2023-06-30T03:56:30.602Z,56.25
2023-06-30T03:57:30.940Z,61.88
2023-06-30T03:58:31.232Z,61.88
2023-06-30T03:59:31.504Z,67.50
2023-06-30T04:00:31.664Z,67.50
2023-06-30T04:01:31.869Z,73.12
2023-06-30T04:02:32.088Z,73.12
2023-06-30T04:03:32.554Z,73.12
2023-06-30T04:04:32.568Z,73.12
2023-06-30T04:05:32.621Z,78.75
2023-06-30T04:06:32.824Z,84.38
2023-06-30T04:07:33.108Z,84.38
2023-06-30T04:08:33.391Z,90.00
2023-06-30T04:09:33.489Z,90.00
2023-06-30T04:10:33.627Z,90.00
2023-06-30T04:11:33.895Z,90.00
2023-06-30T04:12:34.014Z,95.62
2023-06-30T04:13:34.205Z,95.62
2023-06-30T04:14:34.378Z,95.62
2023-06-30T04:15:34.555Z,101.25
2023-06-30T04:16:34.815Z,101.25
2023-06-30T04:17:35.001Z,101.25
2023-06-30T04:18:35.161Z,95.62
2023-06-30T04:19:35.384Z,95.62
2023-06-30T04:20:35.521Z,90.00
2023-06-30T04:21:35.687Z,90.00
2023-06-30T04:22:35.833Z,90.00
2023-06-30T04:23:36.169Z,90.00
2023-06-30T04:24:36.440Z,90.00
2023-06-30T04:25:36.535Z,90.00
2023-06-30T04:26:37.332Z,95.62
2023-06-30T04:27:37.064Z,106.88
2023-06-30T04:28:37.206Z,106.88
2023-06-30T04:29:37.419Z,112.50
2023-06-30T04:30:37.621Z,118.12
2023-06-30T04:31:37.804Z,112.50
2023-06-30T04:32:38.042Z,101.25
2023-06-30T04:33:38.195Z,106.88
2023-06-30T04:34:38.332Z,146.25
2023-06-30T04:35:38.562Z,157.50
2023-06-30T04:36:38.744Z,174.38
2023-06-30T04:37:38.905Z,180.00
2023-06-30T04:38:39.112Z,174.38
2023-06-30T04:39:39.352Z,168.75
2023-06-30T04:40:39.401Z,157.50
2023-06-30T04:41:39.624Z,135.00
2023-06-30T04:42:39.863Z,118.12
2023-06-30T04:43:39.971Z,106.88
2023-06-30T04:44:40.262Z,90.00
2023-06-30T04:45:40.391Z,78.75
2023-06-30T04:46:40.687Z,78.75
2023-06-30T04:47:40.769Z,73.12
2023-06-30T04:48:40.918Z,78.75
2023-06-30T04:49:41.245Z,73.12
2023-06-30T04:50:41.249Z,67.50
2023-06-30T04:51:41.463Z,67.50
2023-06-30T04:52:42.363Z,67.50
2023-06-30T04:53:41.892Z,67.50
2023-06-30T04:54:42.266Z,61.88
2023-06-30T04:55:42.659Z,61.88
2023-06-30T04:56:42.595Z,61.88
2023-06-30T04:57:42.747Z,61.88
2023-06-30T04:58:43.550Z,67.50
2023-06-30T04:59:43.268Z,67.50
2023-06-30T05:00:43.488Z,67.50
2023-06-30T05:01:45.092Z,73.12
2023-06-30T05:02:43.925Z,73.12
2023-06-30T05:03:44.183Z,78.75
2023-06-30T05:04:44.357Z,78.75
2023-06-30T05:05:44.730Z,84.38
2023-06-30T05:06:44.757Z,84.38
2023-06-30T05:07:44.907Z,90.00
2023-06-30T05:08:45.117Z,90.00
2023-06-30T05:09:45.398Z,95.62
2023-06-30T05:10:45.568Z,95.62
2023-06-30T05:11:46.164Z,95.62
2023-06-30T05:12:46.047Z,95.62
2023-06-30T05:13:46.232Z,90.00
2023-06-30T05:14:46.431Z,84.38
2023-06-30T05:15:46.896Z,78.75
2023-06-30T05:16:46.968Z,84.38
2023-06-30T05:17:47.844Z,73.12
2023-06-30T05:18:47.252Z,73.12
2023-06-30T05:19:47.596Z,78.75
2023-06-30T05:20:47.871Z,67.50
2023-06-30T05:21:48.234Z,61.88
2023-06-30T05:22:48.429Z,73.12
2023-06-30T05:23:48.636Z,84.38
2023-06-30T05:24:48.991Z,73.12
2023-06-30T05:25:49.118Z,61.88
2023-06-30T05:26:49.428Z,61.88
2023-06-30T05:27:49.602Z,56.25
2023-06-30T05:29:03.444Z,56.25
2023-06-30T05:29:49.948Z,50.62
2023-06-30T05:30:50.162Z,50.62
2023-06-30T05:31:50.399Z,50.62
2023-06-30T05:32:50.626Z,45.00
2023-06-30T05:33:51.056Z,50.62
2023-06-30T05:34:51.630Z,50.62
2023-06-30T05:35:51.379Z,50.62
2023-06-30T05:36:51.700Z,56.25
2023-06-30T05:37:51.908Z,56.25
2023-06-30T05:38:52.146Z,56.25
2023-06-30T05:39:52.448Z,56.25
2023-06-30T05:40:52.642Z,56.25
2023-06-30T05:41:52.956Z,56.25
2023-06-30T05:42:53.058Z,61.88
2023-06-30T05:43:53.379Z,61.88
2023-06-30T05:44:53.591Z,56.25
2023-06-30T05:45:53.890Z,56.25
2023-06-30T05:46:54.183Z,56.25
2023-06-30T05:47:54.296Z,56.25
2023-06-30T05:48:54.434Z,61.88
2023-06-30T05:49:54.606Z,61.88
2023-06-30T05:50:54.889Z,61.88
2023-06-30T05:51:55.294Z,61.88
2023-06-30T05:52:55.352Z,56.25
2023-06-30T05:53:55.655Z,61.88
2023-06-30T05:54:55.827Z,61.88
2023-06-30T05:55:56.007Z,67.50
2023-06-30T05:56:56.493Z,78.75
2023-06-30T05:57:56.476Z,84.38
2023-06-30T05:58:56.658Z,101.25
2023-06-30T05:59:56.899Z,118.12
2023-06-30T06:00:57.084Z,129.38
2023-06-30T06:01:57.284Z,123.75
2023-06-30T06:02:57.557Z,101.25
2023-06-30T06:03:57.808Z,84.38
2023-06-30T06:04:58.180Z,101.25
2023-06-30T06:05:58.353Z,140.62
2023-06-30T06:06:58.436Z,140.62
2023-06-30T06:07:58.525Z,135.00
2023-06-30T06:08:58.722Z,140.62
2023-06-30T06:09:58.916Z,140.62
2023-06-30T06:10:59.078Z,146.25
2023-06-30T06:11:59.305Z,163.12
2023-06-30T06:12:59.487Z,174.38
2023-06-30T06:13:59.578Z,180.00
2023-06-30T06:14:59.760Z,185.62
2023-06-30T06:16:00.045Z,196.88
2023-06-30T06:17:00.298Z,213.75
2023-06-30T06:18:00.380Z,225.00
2023-06-30T06:19:00.519Z,236.25
2023-06-30T06:20:00.716Z,247.50
2023-06-30T06:21:00.890Z,264.38
2023-06-30T06:22:01.232Z,275.62
2023-06-30T06:23:01.265Z,270.00
2023-06-30T06:24:01.423Z,264.38
2023-06-30T06:25:01.634Z,275.62
2023-06-30T06:26:01.795Z,281.25
2023-06-30T06:27:02.027Z,281.25
2023-06-30T06:28:02.162Z,270.00
2023-06-30T06:29:02.368Z,264.38
2023-06-30T06:30:02.529Z,292.50
2023-06-30T06:31:02.752Z,331.88
2023-06-30T06:32:02.905Z,343.12
2023-06-30T06:33:03.137Z,343.12
2023-06-30T06:34:03.325Z,348.75
2023-06-30T06:35:03.442Z,354.38
2023-06-30T06:36:03.630Z,376.88
2023-06-30T06:37:03.873Z,382.50
2023-06-30T06:38:04.010Z,399.38
2023-06-30T06:39:04.213Z,421.88
2023-06-30T06:40:04.380Z,433.12
2023-06-30T06:41:04.583Z,444.38
2023-06-30T06:42:04.786Z,450.00
2023-06-30T06:43:04.925Z,455.62
2023-06-30T06:44:05.273Z,461.25
2023-06-30T06:45:05.360Z,472.50
2023-06-30T06:46:05.553Z,495.00
2023-06-30T06:47:05.688Z,523.12
2023-06-30T06:48:05.862Z,540.00
2023-06-30T06:49:06.070Z,556.88
2023-06-30T06:50:06.261Z,562.50
2023-06-30T06:51:06.434Z,562.50
2023-06-30T06:52:06.627Z,556.88
2023-06-30T06:53:06.862Z,556.88
2023-06-30T06:54:07.543Z,556.88
2023-06-30T06:55:07.299Z,562.50
2023-06-30T06:56:07.363Z,573.75
2023-06-30T06:57:07.586Z,579.38
2023-06-30T06:58:07.758Z,579.38
2023-06-30T06:59:07.910Z,573.75
2023-06-30T07:00:08.227Z,585.00
2023-06-30T07:01:08.280Z,641.25
2023-06-30T07:02:08.531Z,697.50
2023-06-30T07:03:08.681Z,691.88
2023-06-30T07:04:08.975Z,691.88
2023-06-30T07:05:09.098Z,686.25
2023-06-30T07:06:09.359Z,646.88
2023-06-30T07:07:09.631Z,596.25
2023-06-30T07:08:09.632Z,568.12
2023-06-30T07:09:09.811Z,545.62
2023-06-30T07:10:10.026Z,528.75
2023-06-30T07:11:10.174Z,489.38
2023-06-30T07:12:11.205Z,438.75
2023-06-30T07:13:10.581Z,421.88
2023-06-30T07:14:10.777Z,427.50
2023-06-30T07:15:11.092Z,393.75
2023-06-30T07:16:11.228Z,326.25
2023-06-30T07:17:11.416Z,298.12
2023-06-30T07:18:11.696Z,303.75
2023-06-30T07:19:11.731Z,309.38
2023-06-30T07:20:11.911Z,326.25
2023-06-30T07:21:12.156Z,326.25
2023-06-30T07:22:12.328Z,388.12
2023-06-30T07:23:12.537Z,399.38
2023-06-30T07:24:12.705Z,461.25
2023-06-30T07:25:12.902Z,399.38
2023-06-30T07:26:13.075Z,388.12
2023-06-30T07:27:13.377Z,405.00
2023-06-30T07:28:13.456Z,399.38
2023-06-30T07:29:13.650Z,371.25
2023-06-30T07:30:13.826Z,354.38
2023-06-30T07:31:14.118Z,360.00
2023-06-30T07:32:15.799Z,320.62
2023-06-30T07:33:14.529Z,326.25
2023-06-30T07:34:14.606Z,410.62
2023-06-30T07:35:14.748Z,500.62
2023-06-30T07:36:14.921Z,551.25
2023-06-30T07:37:15.270Z,405.00
2023-06-30T07:38:15.349Z,382.50
2023-06-30T07:39:15.533Z,371.25
2023-06-30T07:40:17.337Z,360.00
2023-06-30T07:41:15.907Z,371.25
2023-06-30T07:42:16.067Z,399.38
2023-06-30T07:43:16.233Z,466.88
2023-06-30T07:44:16.417Z,511.88
2023-06-30T07:45:16.588Z,478.12
2023-06-30T07:46:16.847Z,495.00
2023-06-30T07:47:17.050Z,556.88
2023-06-30T07:48:17.306Z,511.88
2023-06-30T07:49:17.404Z,523.12
2023-06-30T07:50:17.506Z,562.50
2023-06-30T07:51:17.697Z,618.75
2023-06-30T07:52:17.969Z,573.75
2023-06-30T07:53:18.074Z,500.62
2023-06-30T07:54:18.256Z,478.12
2023-06-30T07:55:18.500Z,455.62
2023-06-30T07:56:18.651Z,495.00
2023-06-30T07:57:18.875Z,568.12
2023-06-30T07:58:19.025Z,613.12
2023-06-30T07:59:19.193Z,613.12
2023-06-30T08:00:19.585Z,579.38
2023-06-30T08:01:19.577Z,551.25
2023-06-30T08:02:19.784Z,585.00
2023-06-30T08:03:20.132Z,641.25
2023-06-30T08:04:20.393Z,680.62
2023-06-30T08:05:20.421Z,646.88
2023-06-30T08:06:20.572Z,641.25
2023-06-30T08:07:20.782Z,590.62
2023-06-30T08:08:20.904Z,511.88
2023-06-30T08:09:21.141Z,534.38
2023-06-30T08:10:21.300Z,562.50
2023-06-30T08:11:21.470Z,540.00
2023-06-30T08:12:21.729Z,517.50
2023-06-30T08:13:21.858Z,495.00
2023-06-30T08:14:22.105Z,556.88
2023-06-30T08:15:22.243Z,601.88
2023-06-30T08:16:22.483Z,624.38
2023-06-30T08:17:26.621Z,596.25
2023-06-30T08:18:31.638Z,579.38
2023-06-30T08:19:47.435Z,607.50
2023-06-30T08:20:23.269Z,613.12
2023-06-30T08:21:23.521Z,556.88
2023-06-30T08:22:23.552Z,506.25
2023-06-30T08:23:23.696Z,483.75
2023-06-30T08:24:23.882Z,478.12
2023-06-30T08:25:24.160Z,506.25
2023-06-30T08:26:24.253Z,483.75
2023-06-30T08:27:24.515Z,433.12
2023-06-30T08:28:24.637Z,410.62
2023-06-30T08:29:24.821Z,393.75
2023-06-30T08:30:25.634Z,410.62
2023-06-30T08:31:25.244Z,421.88
2023-06-30T08:32:25.409Z,450.00
2023-06-30T08:33:39.213Z,478.12
2023-06-30T08:34:25.773Z,495.00
2023-06-30T08:35:25.934Z,506.25
2023-06-30T08:36:26.131Z,506.25
2023-06-30T08:37:26.345Z,517.50
2023-06-30T08:38:26.518Z,523.12
2023-06-30T08:39:26.723Z,528.75
2023-06-30T08:40:26.986Z,545.62
2023-06-30T08:41:27.076Z,562.50
2023-06-30T08:42:27.331Z,585.00
2023-06-30T08:43:27.448Z,613.12
2023-06-30T08:44:27.660Z,641.25
2023-06-30T08:45:27.928Z,658.12
2023-06-30T08:46:28.154Z,675.00
2023-06-30T08:47:28.254Z,714.38
2023-06-30T08:48:28.443Z,748.12
2023-06-30T08:49:28.590Z,675.00
2023-06-30T08:50:28.823Z,540.00
2023-06-30T08:51:28.970Z,444.38
2023-06-30T08:52:29.282Z,382.50
2023-06-30T08:53:29.473Z,343.12
2023-06-30T08:54:29.546Z,292.50
2023-06-30T08:55:29.760Z,270.00
2023-06-30T08:56:29.937Z,253.12
2023-06-30T08:57:30.138Z,258.75
2023-06-30T08:58:30.348Z,264.38
2023-06-30T08:59:30.504Z,281.25
2023-06-30T09:00:30.712Z,309.38
2023-06-30T09:01:31.045Z,354.38
2023-06-30T09:02:31.278Z,393.75
2023-06-30T09:03:31.381Z,433.12
2023-06-30T09:04:31.479Z,450.00
2023-06-30T09:05:31.581Z,483.75
2023-06-30T09:06:31.800Z,534.38
2023-06-30T09:07:32.132Z,579.38
2023-06-30T09:08:32.206Z,736.88
2023-06-30T09:09:32.382Z,748.12
2023-06-30T09:10:32.681Z,731.25
2023-06-30T09:11:32.763Z,725.62
2023-06-30T09:12:33.005Z,748.12
2023-06-30T09:13:33.199Z,781.88
2023-06-30T09:14:33.360Z,810.00
2023-06-30T09:15:33.599Z,855.00
2023-06-30T09:16:33.839Z,894.38
2023-06-30T09:17:40.090Z,939.38
2023-06-30T09:18:34.156Z,1040.62
2023-06-30T09:19:34.383Z,1816.88
2023-06-30T09:20:34.601Z,2632.50
2023-06-30T09:21:34.744Z,1248.75
2023-06-30T09:22:54.033Z,2542.50
2023-06-30T09:23:35.164Z,2604.38
2023-06-30T09:24:35.369Z,2818.12
2023-06-30T09:25:35.608Z,2823.75
2023-06-30T09:26:35.729Z,2902.50
2023-06-30T09:27:35.917Z,680.62
2023-06-30T09:28:36.147Z,545.62
2023-06-30T09:29:36.331Z,495.00
2023-06-30T09:30:36.496Z,568.12
2023-06-30T09:31:36.706Z,675.00
2023-06-30T09:32:36.879Z,922.50
2023-06-30T09:33:37.082Z,950.62
2023-06-30T09:34:37.269Z,810.00
2023-06-30T09:35:37.457Z,798.75
2023-06-30T09:36:37.676Z,1760.62
2023-06-30T09:37:37.889Z,832.50
2023-06-30T09:38:38.085Z,658.12
2023-06-30T09:39:38.252Z,568.12
2023-06-30T09:40:38.470Z,376.88
2023-06-30T09:41:38.714Z,337.50
2023-06-30T09:42:38.842Z,331.88
2023-06-30T09:43:39.153Z,331.88
2023-06-30T09:44:39.241Z,331.88
2023-06-30T09:45:39.529Z,365.62
2023-06-30T09:46:39.686Z,393.75
2023-06-30T09:47:39.870Z,393.75
2023-06-30T09:48:40.037Z,405.00
2023-06-30T09:49:40.172Z,382.50
2023-06-30T09:50:40.405Z,360.00
2023-06-30T09:51:40.581Z,326.25
2023-06-30T09:52:40.748Z,326.25
2023-06-30T09:53:41.012Z,337.50
2023-06-30T09:54:44.895Z,303.75
2023-06-30T09:55:41.320Z,303.75
2023-06-30T09:56:41.520Z,315.00
2023-06-30T09:57:41.672Z,337.50
2023-06-30T09:58:41.871Z,371.25
2023-06-30T09:59:42.116Z,405.00
2023-06-30T10:00:42.270Z,427.50
2023-06-30T10:01:42.471Z,444.38
2023-06-30T10:02:42.656Z,472.50
2023-06-30T10:03:42.917Z,495.00
2023-06-30T10:04:42.962Z,495.00
2023-06-30T10:05:43.331Z,545.62
2023-06-30T10:06:43.352Z,613.12
2023-06-30T10:07:43.583Z,680.62
2023-06-30T10:08:43.776Z,669.38
2023-06-30T10:09:43.916Z,720.00
2023-06-30T10:10:44.283Z,2396.25
2023-06-30T10:11:44.372Z,922.50
2023-06-30T10:12:44.652Z,624.38
2023-06-30T10:13:44.819Z,585.00
2023-06-30T10:14:44.944Z,573.75
2023-06-30T10:15:45.394Z,601.88
2023-06-30T10:16:45.336Z,601.88
2023-06-30T10:17:45.728Z,630.00
2023-06-30T10:18:45.782Z,725.62
2023-06-30T10:19:45.934Z,753.75
2023-06-30T10:20:48.734Z,770.62
2023-06-30T10:21:46.362Z,798.75
2023-06-30T10:22:46.584Z,877.50
2023-06-30T10:23:46.738Z,950.62
2023-06-30T10:24:46.877Z,1006.88
2023-06-30T10:25:47.420Z,978.75
2023-06-30T10:26:47.308Z,939.38
2023-06-30T10:27:47.502Z,995.62
2023-06-30T10:28:47.818Z,945.00
2023-06-30T10:29:47.912Z,871.88
2023-06-30T10:30:48.123Z,888.75
2023-06-30T10:31:48.454Z,843.75
2023-06-30T10:32:48.618Z,821.25
2023-06-30T10:33:48.749Z,855.00
2023-06-30T10:34:48.925Z,883.12
2023-06-30T10:35:49.215Z,883.12
2023-06-30T10:36:49.345Z,838.12
2023-06-30T10:37:49.499Z,725.62
2023-06-30T10:38:49.722Z,641.25
2023-06-30T10:39:49.896Z,596.25
2023-06-30T10:40:50.091Z,573.75
2023-06-30T10:41:50.313Z,562.50
2023-06-30T10:42:50.503Z,534.38
2023-06-30T10:43:50.701Z,483.75
2023-06-30T10:44:50.863Z,461.25
2023-06-30T10:45:51.056Z,455.62
2023-06-30T10:46:51.304Z,455.62
2023-06-30T10:47:51.441Z,466.88
2023-06-30T10:48:51.651Z,472.50
2023-06-30T10:49:51.816Z,495.00
2023-06-30T10:50:52.033Z,528.75
2023-06-30T10:51:52.219Z,551.25
2023-06-30T10:52:52.429Z,562.50
2023-06-30T10:53:52.638Z,551.25
2023-06-30T10:54:52.822Z,568.12
2023-06-30T10:55:53.003Z,545.62
2023-06-30T10:56:53.215Z,545.62
2023-06-30T10:57:53.382Z,551.25
2023-06-30T10:58:53.564Z,551.25
2023-06-30T10:59:53.767Z,545.62
2023-06-30T11:00:53.938Z,534.38
2023-06-30T11:01:54.166Z,506.25
2023-06-30T11:02:54.449Z,511.88
2023-06-30T11:03:54.643Z,562.50
2023-06-30T11:04:54.939Z,607.50
2023-06-30T11:05:54.841Z,562.50
2023-06-30T11:06:55.060Z,545.62
2023-06-30T11:07:55.259Z,624.38
2023-06-30T11:08:55.460Z,618.75
2023-06-30T11:09:55.616Z,601.88
2023-06-30T11:10:55.806Z,680.62
2023-06-30T11:11:56.006Z,748.12
2023-06-30T11:12:56.257Z,781.88
2023-06-30T11:13:56.424Z,815.62
2023-06-30T11:14:56.603Z,770.62
2023-06-30T11:15:57.014Z,686.25
2023-06-30T11:16:56.938Z,697.50
2023-06-30T11:17:57.186Z,720.00
2023-06-30T11:18:57.490Z,607.50
2023-06-30T11:19:57.535Z,573.75
2023-06-30T11:20:57.717Z,545.62
2023-06-30T11:21:57.943Z,556.88
2023-06-30T11:22:58.110Z,585.00
2023-06-30T11:23:58.370Z,607.50
2023-06-30T11:24:58.506Z,635.62
2023-06-30T11:25:58.737Z,669.38
2023-06-30T11:26:58.867Z,714.38
2023-06-30T11:27:59.080Z,742.50
2023-06-30T11:28:59.284Z,748.12
2023-06-30T11:29:59.439Z,714.38
2023-06-30T11:30:59.759Z,663.75
2023-06-30T11:31:59.819Z,618.75
2023-06-30T11:33:00.086Z,635.62
2023-06-30T11:34:00.229Z,675.00
2023-06-30T11:35:00.379Z,742.50
2023-06-30T11:36:00.676Z,781.88
2023-06-30T11:37:00.762Z,798.75
2023-06-30T11:38:00.977Z,843.75
2023-06-30T11:39:01.175Z,742.50
2023-06-30T11:40:02.327Z,669.38
2023-06-30T11:41:01.592Z,562.50
2023-06-30T11:42:01.734Z,500.62
2023-06-30T11:43:01.959Z,399.38
2023-06-30T11:44:02.188Z,410.62
2023-06-30T11:45:02.346Z,433.12
2023-06-30T11:46:03.139Z,427.50
2023-06-30T11:47:02.885Z,427.50
2023-06-30T11:48:02.908Z,433.12
2023-06-30T11:49:03.104Z,444.38
2023-06-30T11:50:03.260Z,455.62
2023-06-30T11:51:03.445Z,472.50
2023-06-30T11:52:03.663Z,478.12
2023-06-30T11:53:03.868Z,489.38
2023-06-30T11:54:04.151Z,489.38
2023-06-30T11:55:04.254Z,478.12
2023-06-30T11:56:04.428Z,500.62
2023-06-30T11:57:04.611Z,511.88
2023-06-30T11:58:05.461Z,506.25
2023-06-30T11:59:05.021Z,562.50
2023-06-30T12:00:05.174Z,658.12
2023-06-30T12:01:05.386Z,697.50
2023-06-30T12:02:05.546Z,624.38
2023-06-30T12:03:05.810Z,545.62
2023-06-30T12:04:06.001Z,523.12
2023-06-30T12:05:06.116Z,483.75
2023-06-30T12:06:06.321Z,483.75
2023-06-30T12:07:07.039Z,506.25
2023-06-30T12:08:06.649Z,506.25
2023-06-30T12:09:06.891Z,495.00
2023-06-30T12:10:07.082Z,540.00
2023-06-30T12:11:07.242Z,607.50
2023-06-30T12:12:07.451Z,646.88
2023-06-30T12:13:07.638Z,720.00
2023-06-30T12:14:07.872Z,646.88
2023-06-30T12:15:08.125Z,652.50
2023-06-30T12:16:08.260Z,742.50
2023-06-30T12:17:08.535Z,781.88
2023-06-30T12:18:08.769Z,765.00
2023-06-30T12:19:08.877Z,731.25
2023-06-30T12:20:09.038Z,646.88
2023-06-30T12:21:09.297Z,601.88
2023-06-30T12:22:09.415Z,562.50
2023-06-30T12:23:09.681Z,472.50
2023-06-30T12:24:09.793Z,427.50
2023-06-30T12:25:09.939Z,371.25
2023-06-30T12:26:10.137Z,360.00
2023-06-30T12:27:10.305Z,365.62
2023-06-30T12:28:10.513Z,360.00
2023-06-30T12:29:10.745Z,331.88
2023-06-30T12:30:10.868Z,309.38
2023-06-30T12:31:11.076Z,286.88
2023-06-30T12:32:11.242Z,275.62
2023-06-30T12:33:11.456Z,264.38
2023-06-30T12:34:11.676Z,253.12
2023-06-30T12:35:11.839Z,213.75
2023-06-30T12:36:12.016Z,185.62
2023-06-30T12:37:12.234Z,191.25
2023-06-30T12:38:12.463Z,225.00
2023-06-30T12:39:12.629Z,270.00
2023-06-30T12:40:12.780Z,292.50
2023-06-30T12:41:12.963Z,326.25
2023-06-30T12:42:13.132Z,343.12
2023-06-30T12:43:13.348Z,376.88
2023-06-30T12:44:13.672Z,376.88
2023-06-30T12:45:13.745Z,376.88
2023-06-30T12:46:13.937Z,360.00
2023-06-30T12:47:14.112Z,337.50